createdAt,value
2022-09-24T00:01:57.764Z,3.53
2022-09-24T00:04:03.443Z,3.38
2022-09-24T00:06:06.671Z,3.10
2022-09-24T00:08:09.035Z,3.15
2022-09-24T00:10:10.785Z,3.22
2022-09-24T00:12:13.206Z,3.03
2022-09-24T00:14:16.339Z,3.30
2022-09-24T00:16:20.506Z,3.00
2022-09-24T00:18:22.784Z,3.28
2022-09-24T00:20:24.518Z,3.22
2022-09-24T00:22:26.069Z,3.60
2022-09-24T00:24:46.336Z,3.10
2022-09-24T00:26:51.073Z,3.30
2022-09-24T00:28:53.080Z,2.90
2022-09-24T00:30:55.458Z,2.92
2022-09-24T00:32:56.938Z,3.17
2022-09-24T00:34:59.659Z,3.10
2022-09-24T00:37:01.361Z,2.80
2022-09-24T00:39:04.773Z,3.30
2022-09-24T00:41:06.472Z,3.50
2022-09-24T00:43:28.178Z,3.00
2022-09-24T00:45:31.109Z,3.05
2022-09-24T00:47:39.315Z,3.25
2022-09-24T00:49:44.727Z,3.10
2022-09-24T00:51:50.403Z,3.30
2022-09-24T00:53:56.634Z,3.13
2022-09-24T00:55:59.840Z,3.08
2022-09-24T00:58:04.104Z,3.50
2022-09-24T01:00:07.435Z,3.50
2022-09-24T01:02:09.080Z,3.40
2022-09-24T01:04:14.414Z,3.30
2022-09-24T01:06:16.167Z,3.10
2022-09-24T01:08:19.182Z,3.72
2022-09-24T01:10:49.497Z,3.55
2022-09-24T01:13:03.026Z,3.35
2022-09-24T01:15:04.477Z,3.55
2022-09-24T01:17:25.314Z,4.10
2022-09-24T01:20:07.310Z,4.07
2022-09-24T01:22:27.561Z,3.50
2022-09-24T01:24:38.578Z,3.78
2022-09-24T01:26:43.328Z,3.55
2022-09-24T01:29:27.028Z,3.92
2022-09-24T01:31:54.870Z,3.70
2022-09-24T01:33:58.778Z,3.45
2022-09-24T01:36:08.363Z,3.45
2022-09-24T01:38:15.071Z,2.97
2022-09-24T01:40:18.830Z,3.63
2022-09-24T01:42:23.138Z,3.22
2022-09-24T01:44:26.070Z,3.10
2022-09-24T01:46:32.092Z,3.28
2022-09-24T01:48:40.239Z,3.47
2022-09-24T01:51:05.525Z,3.53
2022-09-24T01:53:21.537Z,2.92
2022-09-24T01:55:28.393Z,3.40
2022-09-24T01:57:35.231Z,3.30
2022-09-24T01:59:42.112Z,3.20
2022-09-24T02:01:50.360Z,3.45
2022-09-24T02:03:57.678Z,3.28
2022-09-24T02:06:04.109Z,3.20
2022-09-24T02:08:11.664Z,3.55
2022-09-24T02:10:17.979Z,3.30
2022-09-24T02:12:29.820Z,3.20
2022-09-24T02:14:36.539Z,3.22
2022-09-24T02:16:45.528Z,3.05
2022-09-24T02:18:50.159Z,3.30
2022-09-24T02:20:53.130Z,3.35
2022-09-24T02:22:57.315Z,3.28
2022-09-24T02:25:03.996Z,3.05
2022-09-24T02:27:05.643Z,3.45
2022-09-24T02:29:07.639Z,3.03
2022-09-24T02:31:16.533Z,3.50
2022-09-24T02:33:39.020Z,3.08
2022-09-24T02:35:40.773Z,3.47
2022-09-24T02:37:44.480Z,3.20
2022-09-24T02:39:47.418Z,3.25
2022-09-24T02:41:50.177Z,3.40
2022-09-24T02:43:52.685Z,3.45
2022-09-24T02:45:54.565Z,3.22
2022-09-24T02:47:56.104Z,3.47
2022-09-24T02:49:57.660Z,3.15
2022-09-24T02:51:59.685Z,3.20
2022-09-24T02:54:01.792Z,3.22
2022-09-24T02:56:04.077Z,3.00
2022-09-24T02:58:05.541Z,3.20
2022-09-24T03:00:07.935Z,3.08
2022-09-24T03:02:09.687Z,3.10
2022-09-24T03:04:15.551Z,3.20
2022-09-24T03:06:17.327Z,3.30
2022-09-24T03:08:20.340Z,3.10
2022-09-24T03:10:21.895Z,3.25
2022-09-24T03:12:23.480Z,3.55
2022-09-24T03:14:27.193Z,2.83
2022-09-24T03:16:28.888Z,3.28
2022-09-24T03:18:30.398Z,3.17
2022-09-24T03:20:32.242Z,2.80
2022-09-24T03:22:34.026Z,3.25
2022-09-24T03:24:35.745Z,3.33
2022-09-24T03:26:39.556Z,3.20
2022-09-24T03:28:41.445Z,3.08
2022-09-24T03:31:02.471Z,3.13
2022-09-24T03:33:04.577Z,2.88
2022-09-24T03:35:08.773Z,3.10
2022-09-24T03:37:10.366Z,3.40
2022-09-24T03:39:12.966Z,3.08
2022-09-24T03:41:16.790Z,2.70
2022-09-24T03:43:18.529Z,3.03
2022-09-24T03:45:20.070Z,2.97
2022-09-24T03:47:21.641Z,3.20
2022-09-24T03:49:23.611Z,3.20
2022-09-24T03:51:25.942Z,3.42
2022-09-24T03:53:27.528Z,3.20
2022-09-24T03:55:29.128Z,2.95
2022-09-24T03:57:30.955Z,2.95
2022-09-24T03:59:32.407Z,3.17
2022-09-24T04:01:37.317Z,3.08
2022-09-24T04:03:40.510Z,3.53
2022-09-24T04:05:42.294Z,3.42
2022-09-24T04:07:45.061Z,3.20
2022-09-24T04:09:46.643Z,3.42
2022-09-24T04:11:52.560Z,3.38
2022-09-24T04:13:54.150Z,3.05
2022-09-24T04:15:58.302Z,3.40
2022-09-24T04:18:00.093Z,3.88
2022-09-24T04:20:01.812Z,3.42
2022-09-24T04:22:03.937Z,3.28
2022-09-24T04:24:05.779Z,2.97
2022-09-24T04:26:07.370Z,2.83
2022-09-24T04:28:10.290Z,2.92
2022-09-24T04:30:15.190Z,3.15
2022-09-24T04:32:16.773Z,3.38
2022-09-24T04:34:18.336Z,3.20
2022-09-24T04:36:22.169Z,2.92
2022-09-24T04:38:24.354Z,3.20
2022-09-24T04:40:27.063Z,2.80
2022-09-24T04:42:28.695Z,3.15
2022-09-24T04:44:31.295Z,2.78
2022-09-24T04:46:37.919Z,3.00
2022-09-24T04:48:42.147Z,2.80
2022-09-24T04:50:46.357Z,2.80
2022-09-24T04:52:52.518Z,3.38
2022-09-24T04:54:54.577Z,3.00
2022-09-24T04:56:56.096Z,3.13
2022-09-24T04:58:58.752Z,3.25
2022-09-24T05:01:03.839Z,3.25
2022-09-24T05:03:05.799Z,3.30
2022-09-24T05:05:08.318Z,3.15
2022-09-24T05:07:10.414Z,3.33
2022-09-24T05:09:12.857Z,3.40
2022-09-24T05:11:14.563Z,3.90
2022-09-24T05:13:16.384Z,3.40
2022-09-24T05:15:25.577Z,3.58
2022-09-24T05:17:27.066Z,3.80
2022-09-24T05:19:28.676Z,3.90
2022-09-24T05:21:31.512Z,3.30
2022-09-24T05:23:33.109Z,3.65
2022-09-24T05:25:54.672Z,3.70
2022-09-24T05:27:57.087Z,3.30
2022-09-24T05:29:59.994Z,3.50
2022-09-24T05:32:12.297Z,3.22
2022-09-24T05:34:14.340Z,3.42
2022-09-24T05:36:19.509Z,3.50
2022-09-24T05:38:21.361Z,3.55
2022-09-24T05:40:41.399Z,3.50
2022-09-24T05:42:43.221Z,3.72
2022-09-24T05:44:47.507Z,3.63
2022-09-24T05:46:53.435Z,4.18
2022-09-24T05:48:57.933Z,4.40
2022-09-24T05:51:03.473Z,4.28
2022-09-24T05:53:06.357Z,4.10
2022-09-24T05:55:10.051Z,3.80
2022-09-24T05:57:15.613Z,4.10
2022-09-24T05:59:20.401Z,3.78
2022-09-24T06:01:22.117Z,3.90
2022-09-24T06:03:23.782Z,3.47
2022-09-24T06:05:25.655Z,3.33
2022-09-24T06:07:33.414Z,3.85
2022-09-24T06:09:35.029Z,3.33
2022-09-24T06:11:40.370Z,3.35
2022-09-24T06:13:42.614Z,3.45
2022-09-24T06:15:44.665Z,3.47
2022-09-24T06:17:47.100Z,3.35
2022-09-24T06:19:51.720Z,3.20
2022-09-24T06:21:53.272Z,3.22
2022-09-24T06:23:54.929Z,3.40
2022-09-24T06:25:57.215Z,3.38
2022-09-24T06:28:01.582Z,2.88
2022-09-24T06:30:04.874Z,3.33
2022-09-24T06:32:06.359Z,2.85
2022-09-24T06:34:08.151Z,3.92
2022-09-24T06:36:09.875Z,4.57
2022-09-24T06:38:13.972Z,4.28
2022-09-24T06:40:16.176Z,3.65
2022-09-24T06:42:17.955Z,3.72
2022-09-24T06:44:19.939Z,3.28
2022-09-24T06:46:25.954Z,3.78
2022-09-24T06:48:28.902Z,3.83
2022-09-24T06:50:32.233Z,3.63
2022-09-24T06:52:34.472Z,3.53
2022-09-24T06:54:36.125Z,3.53
2022-09-24T06:56:37.907Z,3.88
2022-09-24T06:58:39.615Z,3.40
2022-09-24T07:00:43.243Z,3.20
2022-09-24T07:02:54.500Z,3.28
2022-09-24T07:04:56.065Z,3.13
2022-09-24T07:07:16.554Z,3.58
2022-09-24T07:09:18.461Z,3.10
2022-09-24T07:11:20.320Z,3.60
2022-09-24T07:13:22.385Z,3.30
2022-09-24T07:15:24.250Z,3.47
2022-09-24T07:17:32.913Z,3.58
2022-09-24T07:19:35.532Z,3.67
2022-09-24T07:21:38.076Z,3.42
2022-09-24T07:23:40.836Z,2.85
2022-09-24T07:25:42.429Z,3.15
2022-09-24T07:27:44.170Z,3.40
2022-09-24T07:29:45.725Z,3.10
2022-09-24T07:31:47.305Z,2.80
2022-09-24T07:33:49.042Z,3.05
2022-09-24T07:35:51.099Z,2.65
2022-09-24T07:38:12.265Z,3.15
2022-09-24T07:40:14.146Z,2.58
2022-09-24T07:42:15.869Z,2.90
2022-09-24T07:44:18.217Z,3.10
2022-09-24T07:46:20.204Z,3.15
2022-09-24T07:48:21.996Z,3.10
2022-09-24T07:50:23.883Z,3.15
2022-09-24T07:52:25.724Z,3.03
2022-09-24T07:54:27.792Z,3.10
2022-09-24T07:56:32.213Z,2.72
2022-09-24T07:58:33.870Z,2.80
2022-09-24T08:00:35.626Z,3.22
2022-09-24T08:02:37.425Z,2.55
2022-09-24T08:04:39.097Z,2.80
2022-09-24T08:06:46.584Z,2.60
2022-09-24T08:08:49.789Z,2.90
2022-09-24T08:10:52.072Z,3.10
2022-09-24T08:12:54.100Z,2.78
2022-09-24T08:14:55.797Z,2.90
2022-09-24T08:16:58.592Z,3.13
2022-09-24T08:19:01.184Z,2.80
2022-09-24T08:21:12.075Z,3.03
2022-09-24T08:23:13.866Z,2.78
2022-09-24T08:25:15.650Z,2.75
2022-09-24T08:27:17.773Z,2.70
2022-09-24T08:29:19.407Z,2.85
2022-09-24T08:31:23.524Z,2.92
2022-09-24T08:33:25.273Z,3.00
2022-09-24T08:35:27.417Z,2.83
2022-09-24T08:37:29.192Z,2.95
2022-09-24T08:39:30.959Z,2.95
2022-09-24T08:41:57.152Z,2.95
2022-09-24T08:44:08.494Z,2.67
2022-09-24T08:46:37.405Z,2.45
2022-09-24T08:48:42.355Z,2.50
2022-09-24T08:50:58.223Z,2.67
2022-09-24T08:53:07.177Z,2.78
2022-09-24T08:55:23.220Z,2.30
2022-09-24T08:57:25.988Z,2.63
2022-09-24T08:59:30.862Z,2.35
2022-09-24T09:01:42.002Z,2.60
2022-09-24T09:03:48.169Z,2.47
2022-09-24T09:05:59.415Z,2.30
2022-09-24T09:08:21.343Z,2.70
2022-09-24T09:10:33.059Z,2.63
2022-09-24T09:12:38.706Z,2.38
2022-09-24T09:15:11.177Z,2.40
2022-09-24T09:17:28.971Z,2.38
2022-09-24T09:19:34.717Z,2.50
2022-09-24T09:21:42.330Z,2.35
2022-09-24T09:23:48.876Z,2.45
2022-09-24T09:25:56.145Z,2.25
2022-09-24T09:28:07.500Z,2.38
2022-09-24T09:30:21.902Z,2.63
2022-09-24T09:32:59.233Z,2.50
2022-09-24T09:35:40.492Z,2.50
2022-09-24T09:37:58.611Z,2.75
2022-09-24T09:40:32.179Z,2.60
2022-09-24T09:42:42.775Z,2.75
2022-09-24T09:44:46.174Z,2.53
2022-09-24T09:47:01.292Z,2.38
2022-09-24T09:49:07.354Z,2.65
2022-09-24T09:51:21.391Z,2.65
2022-09-24T09:53:26.857Z,2.65
2022-09-24T09:55:33.099Z,2.60
2022-09-24T09:57:36.659Z,2.42
2022-09-24T09:59:38.836Z,2.67
2022-09-24T10:01:43.125Z,2.70
2022-09-24T10:03:44.785Z,2.50
2022-09-24T10:06:00.025Z,2.38
2022-09-24T10:08:01.985Z,2.60
2022-09-24T10:10:21.235Z,2.90
2022-09-24T10:12:24.177Z,2.67
2022-09-24T10:14:25.827Z,2.50
2022-09-24T10:16:27.540Z,2.33
2022-09-24T10:18:43.780Z,2.80
2022-09-24T10:20:48.438Z,2.60
2022-09-24T10:22:53.343Z,2.83
2022-09-24T10:24:57.472Z,2.55
2022-09-24T10:26:59.224Z,2.97
2022-09-24T10:29:20.235Z,3.20
2022-09-24T10:31:25.426Z,2.55
2022-09-24T10:33:35.060Z,2.70
2022-09-24T10:35:38.744Z,2.60
2022-09-24T10:37:50.817Z,2.70
2022-09-24T10:40:13.545Z,2.50
2022-09-24T10:42:26.968Z,2.65
2022-09-24T10:44:36.869Z,2.80
2022-09-24T10:46:38.547Z,2.55
2022-09-24T10:48:49.793Z,2.85
2022-09-24T10:51:29.586Z,2.50
2022-09-24T10:53:47.794Z,2.60
2022-09-24T10:56:08.046Z,2.55
2022-09-24T10:58:41.510Z,2.60
2022-09-24T11:01:06.703Z,3.10
2022-09-24T11:03:29.569Z,2.42
2022-09-24T11:05:35.894Z,2.22
2022-09-24T11:07:56.534Z,2.58
2022-09-24T11:10:22.042Z,2.55
2022-09-24T11:12:54.439Z,2.20
2022-09-24T11:15:11.884Z,2.63
2022-09-24T11:17:40.032Z,2.63
2022-09-24T11:20:27.855Z,2.70
2022-09-24T11:22:51.698Z,2.38
2022-09-24T11:25:02.781Z,2.50
2022-09-24T11:27:25.507Z,2.55
2022-09-24T11:29:47.838Z,2.33
2022-09-24T11:32:00.784Z,2.30
2022-09-24T11:34:14.255Z,2.30
2022-09-24T11:36:52.682Z,2.50
2022-09-24T11:39:23.142Z,2.40
2022-09-24T11:41:49.689Z,2.35
2022-09-24T11:44:03.645Z,2.53
2022-09-24T11:46:40.515Z,2.47
2022-09-24T11:49:24.902Z,2.45
2022-09-24T11:51:52.648Z,2.65
2022-09-24T11:54:20.843Z,2.38
2022-09-24T11:56:30.189Z,2.15
2022-09-24T11:58:36.711Z,2.60
2022-09-24T12:00:49.446Z,2.20
2022-09-24T12:02:59.192Z,2.50
2022-09-24T12:05:09.298Z,2.50
2022-09-24T12:07:15.293Z,2.30
2022-09-24T12:09:25.060Z,2.13
2022-09-24T12:11:57.246Z,2.30
2022-09-24T12:14:20.002Z,2.28
2022-09-24T12:16:26.494Z,2.20
2022-09-24T12:18:50.688Z,2.22
2022-09-24T12:20:57.086Z,2.13
2022-09-24T12:23:21.628Z,2.08
2022-09-24T12:25:23.344Z,2.25
2022-09-24T12:27:44.945Z,2.13
2022-09-24T12:30:19.406Z,1.98
2022-09-24T12:32:55.043Z,1.90
2022-09-24T12:35:24.984Z,1.73
2022-09-24T12:37:34.661Z,1.85
2022-09-24T12:39:44.511Z,1.90
2022-09-24T12:42:05.465Z,2.00
2022-09-24T12:44:10.301Z,1.90
2022-09-24T12:46:28.756Z,2.20
2022-09-24T12:48:37.277Z,2.13
2022-09-24T12:50:39.710Z,2.15
2022-09-24T12:52:43.328Z,2.08
2022-09-24T12:54:56.634Z,1.73
2022-09-24T12:57:07.199Z,2.28
2022-09-24T12:59:24.351Z,2.08
2022-09-24T13:01:32.065Z,2.22
2022-09-24T13:03:44.610Z,2.00
2022-09-24T13:05:48.659Z,2.33
2022-09-24T13:08:24.722Z,2.28
2022-09-24T13:10:32.054Z,1.88
2022-09-24T13:12:33.817Z,2.20
2022-09-24T13:14:35.598Z,2.25
2022-09-24T13:16:39.827Z,2.15
2022-09-24T13:18:43.544Z,2.28
2022-09-24T13:20:59.943Z,1.95
2022-09-24T13:23:20.466Z,2.35
2022-09-24T13:25:24.935Z,2.15
2022-09-24T13:27:31.775Z,1.73
2022-09-24T13:29:38.739Z,2.20
2022-09-24T13:31:47.666Z,2.17
2022-09-24T13:34:08.320Z,1.80
2022-09-24T13:36:18.192Z,2.70
2022-09-24T13:38:29.302Z,2.20
2022-09-24T13:40:36.039Z,2.20
2022-09-24T13:42:46.473Z,2.00
2022-09-24T13:44:57.113Z,2.05
2022-09-24T13:47:21.521Z,2.15
2022-09-24T13:49:24.563Z,2.00
2022-09-24T13:51:30.849Z,1.98
2022-09-24T13:53:49.371Z,1.80
2022-09-24T13:55:57.220Z,1.98
2022-09-24T13:57:59.017Z,2.03
2022-09-24T14:00:20.790Z,2.15
2022-09-24T14:02:25.577Z,2.42
2022-09-24T14:04:27.790Z,1.88
2022-09-24T14:06:40.193Z,2.10
2022-09-24T14:08:45.135Z,2.05
2022-09-24T14:10:51.361Z,1.98
2022-09-24T14:13:02.263Z,2.10
2022-09-24T14:15:17.749Z,2.05
2022-09-24T14:17:20.103Z,2.33
2022-09-24T14:19:23.461Z,1.92
2022-09-24T14:21:38.182Z,2.10
2022-09-24T14:23:56.062Z,2.00
2022-09-24T14:26:00.031Z,2.10
2022-09-24T14:28:04.171Z,2.10
2022-09-24T14:30:08.295Z,2.00
2022-09-24T14:32:42.261Z,1.92
2022-09-24T14:34:44.420Z,2.17
2022-09-24T14:36:46.093Z,1.92
2022-09-24T14:38:58.006Z,2.22
2022-09-24T14:41:15.314Z,2.15
2022-09-24T14:43:31.314Z,2.13
2022-09-24T14:45:38.054Z,1.83
2022-09-24T14:47:39.801Z,2.15
2022-09-24T14:49:45.578Z,2.22
2022-09-24T14:51:54.763Z,2.10
2022-09-24T14:54:19.114Z,2.38
2022-09-24T14:56:27.303Z,2.08
2022-09-24T14:58:28.938Z,1.95
2022-09-24T15:00:46.789Z,2.40
2022-09-24T15:03:02.685Z,2.38
2022-09-24T15:05:09.961Z,2.20
2022-09-24T15:07:16.609Z,2.03
2022-09-24T15:09:32.804Z,1.95
2022-09-24T15:11:43.153Z,2.13
2022-09-24T15:13:45.560Z,2.00
2022-09-24T15:15:47.583Z,2.20
2022-09-24T15:17:49.114Z,1.92
2022-09-24T15:19:54.739Z,2.50
2022-09-24T15:22:00.225Z,1.95
2022-09-24T15:24:02.455Z,2.35
2022-09-24T15:26:04.717Z,2.30
2022-09-24T15:28:13.787Z,1.90
2022-09-24T15:30:20.562Z,2.13
2022-09-24T15:32:22.147Z,2.47
2022-09-24T15:34:23.899Z,2.22
2022-09-24T15:36:28.068Z,2.00
2022-09-24T15:38:30.061Z,2.15
2022-09-24T15:40:33.845Z,2.30
2022-09-24T15:42:35.484Z,2.17
2022-09-24T15:44:37.163Z,2.20
2022-09-24T15:46:38.750Z,2.20
2022-09-24T15:48:42.462Z,2.33
2022-09-24T15:50:46.367Z,2.38
2022-09-24T15:52:59.125Z,2.30
2022-09-24T15:55:02.628Z,2.20
2022-09-24T15:57:04.290Z,2.40
2022-09-24T15:59:14.482Z,2.35
2022-09-24T16:01:19.923Z,2.58
2022-09-24T16:03:29.980Z,2.10
2022-09-24T16:05:31.886Z,2.33
2022-09-24T16:07:33.409Z,2.40
2022-09-24T16:09:35.281Z,2.40
2022-09-24T16:11:36.860Z,2.30
2022-09-24T16:13:38.639Z,2.50
2022-09-24T16:15:40.871Z,2.50
2022-09-24T16:17:43.634Z,2.58
2022-09-24T16:19:45.344Z,2.63
2022-09-24T16:21:53.220Z,2.55
2022-09-24T16:23:56.094Z,2.88
2022-09-24T16:25:59.379Z,2.75
2022-09-24T16:28:01.485Z,2.92
2022-09-24T16:30:04.968Z,2.70
2022-09-24T16:32:06.927Z,2.50
2022-09-24T16:34:08.851Z,2.60
2022-09-24T16:36:11.078Z,2.80
2022-09-24T16:38:12.788Z,2.80
2022-09-24T16:40:15.501Z,3.38
2022-09-24T16:42:17.277Z,4.90
2022-09-24T16:44:19.462Z,5.25
2022-09-24T16:46:24.286Z,6.05
2022-09-24T16:48:26.080Z,6.78
2022-09-24T16:50:28.207Z,7.55
2022-09-24T16:52:31.426Z,7.78
2022-09-24T16:54:36.005Z,9.70
2022-09-24T16:56:38.601Z,11.13
2022-09-24T16:58:45.065Z,14.27
2022-09-24T17:00:46.505Z,18.35
2022-09-24T17:02:48.119Z,19.92
2022-09-24T17:04:49.949Z,24.23
2022-09-24T17:06:54.710Z,23.73
2022-09-24T17:09:18.121Z,21.83
2022-09-24T17:11:21.402Z,18.75
2022-09-24T17:13:23.159Z,14.90
2022-09-24T17:15:24.860Z,11.10
2022-09-24T17:17:26.404Z,8.82
2022-09-24T17:19:28.117Z,7.03
2022-09-24T17:21:29.910Z,5.85
2022-09-24T17:23:31.452Z,5.50
2022-09-24T17:25:33.068Z,5.03
2022-09-24T17:27:40.197Z,4.78
2022-09-24T17:29:43.037Z,4.50
2022-09-24T17:31:46.762Z,4.20
2022-09-24T17:33:55.807Z,4.53
2022-09-24T17:36:03.983Z,4.30
2022-09-24T17:38:07.790Z,4.32
2022-09-24T17:40:11.078Z,4.35
2022-09-24T17:42:12.875Z,4.75
2022-09-24T17:44:14.483Z,3.97
2022-09-24T17:46:21.621Z,4.10
2022-09-24T17:48:23.617Z,3.65
2022-09-24T17:50:25.220Z,3.90
2022-09-24T17:52:27.994Z,3.60
2022-09-24T17:54:32.029Z,4.13
2022-09-24T17:56:38.588Z,4.00
2022-09-24T17:58:44.722Z,3.95
2022-09-24T18:00:47.354Z,4.00
2022-09-24T18:02:56.668Z,4.90
2022-09-24T18:04:58.221Z,4.20
2022-09-24T18:07:00.004Z,4.30
2022-09-24T18:09:04.887Z,4.68
2022-09-24T18:11:13.188Z,4.22
2022-09-24T18:13:16.505Z,4.47
2022-09-24T18:15:18.232Z,4.40
2022-09-24T18:17:20.079Z,5.35
2022-09-24T18:19:23.237Z,5.13
2022-09-24T18:21:31.270Z,6.10
2022-09-24T18:23:35.215Z,6.60
2022-09-24T18:25:36.935Z,6.95
2022-09-24T18:27:38.552Z,7.57
2022-09-24T18:29:46.627Z,7.72
2022-09-24T18:31:51.757Z,7.25
2022-09-24T18:33:56.749Z,7.18
2022-09-24T18:36:02.544Z,6.50
2022-09-24T18:38:03.991Z,6.35
2022-09-24T18:40:06.300Z,6.18
2022-09-24T18:42:08.007Z,6.18
2022-09-24T18:44:15.332Z,5.60
2022-09-24T18:46:19.317Z,5.80
2022-09-24T18:48:21.375Z,5.88
2022-09-24T18:50:26.273Z,5.85
2022-09-24T18:52:28.855Z,7.22
2022-09-24T18:54:31.126Z,6.43
2022-09-24T18:56:33.370Z,7.55
2022-09-24T18:58:35.401Z,8.35
2022-09-24T19:00:51.071Z,8.48
2022-09-24T19:02:54.548Z,8.80
2022-09-24T19:04:59.064Z,9.02
2022-09-24T19:07:01.062Z,9.20
2022-09-24T19:09:07.731Z,8.98
2022-09-24T19:11:15.723Z,9.25
2022-09-24T19:13:23.939Z,8.68
2022-09-24T19:15:28.313Z,8.35
2022-09-24T19:17:30.164Z,8.10
2022-09-24T19:19:32.275Z,8.52
2022-09-24T19:21:37.200Z,8.05
2022-09-24T19:23:41.287Z,9.80
2022-09-24T19:25:49.310Z,10.63
2022-09-24T19:27:51.116Z,10.65
2022-09-24T19:29:53.776Z,11.10
2022-09-24T19:31:55.313Z,11.52
2022-09-24T19:33:58.674Z,10.88
2022-09-24T19:36:02.938Z,10.63
2022-09-24T19:38:04.639Z,10.40
2022-09-24T19:40:13.199Z,10.25
2022-09-24T19:42:15.134Z,10.65
2022-09-24T19:44:17.386Z,10.57
2022-09-24T19:46:24.140Z,10.13
2022-09-24T19:48:30.984Z,9.13
2022-09-24T19:50:34.388Z,9.25
2022-09-24T19:52:35.876Z,9.75
2022-09-24T19:54:40.782Z,9.80
2022-09-24T19:56:42.337Z,10.10
2022-09-24T19:58:47.273Z,9.82
2022-09-24T20:00:49.058Z,9.50
2022-09-24T20:02:51.843Z,9.98
2022-09-24T20:04:56.472Z,9.25
2022-09-24T20:07:02.316Z,9.15
2022-09-24T20:09:09.554Z,9.30
2022-09-24T20:11:15.085Z,7.53
2022-09-24T20:13:17.115Z,7.82
2022-09-24T20:15:22.255Z,6.93
2022-09-24T20:17:24.055Z,6.45
2022-09-24T20:19:26.009Z,6.55
2022-09-24T20:21:35.062Z,6.63
2022-09-24T20:23:42.404Z,6.43
2022-09-24T20:26:14.680Z,6.43
2022-09-24T20:28:19.551Z,6.13
2022-09-24T20:30:23.901Z,6.68
2022-09-24T20:32:25.479Z,6.25
2022-09-24T20:34:43.579Z,6.97
2022-09-24T20:36:45.177Z,7.05
2022-09-24T20:38:47.826Z,6.22
2022-09-24T20:40:49.753Z,6.60
2022-09-24T20:42:51.480Z,6.57
2022-09-24T20:44:53.546Z,6.63
2022-09-24T20:46:58.095Z,6.43
2022-09-24T20:49:03.275Z,6.90
2022-09-24T20:51:13.652Z,7.07
2022-09-24T20:53:15.337Z,7.03
2022-09-24T20:55:17.038Z,6.22
2022-09-24T20:57:18.712Z,6.97
2022-09-24T20:59:20.540Z,6.80
2022-09-24T21:01:22.530Z,6.55
2022-09-24T21:03:43.260Z,7.00
2022-09-24T21:05:49.156Z,6.82
2022-09-24T21:07:55.339Z,7.22
2022-09-24T21:09:57.091Z,6.95
2022-09-24T21:11:58.594Z,7.03
2022-09-24T21:14:03.854Z,6.93
2022-09-24T21:16:05.648Z,7.68
2022-09-24T21:18:22.398Z,7.95
2022-09-24T21:20:28.850Z,7.78
2022-09-24T21:22:30.342Z,7.30
2022-09-24T21:24:32.052Z,7.30
2022-09-24T21:26:36.289Z,7.00
2022-09-24T21:28:37.984Z,6.75
2022-09-24T21:30:42.538Z,7.47
2022-09-24T21:32:45.086Z,7.28
2022-09-24T21:34:46.797Z,7.43
2022-09-24T21:36:48.738Z,7.80
2022-09-24T21:38:58.557Z,7.45
2022-09-24T21:41:01.253Z,7.97
2022-09-24T21:43:05.868Z,7.38
2022-09-24T21:45:08.278Z,7.38
2022-09-24T21:47:09.783Z,7.88
2022-09-24T21:49:16.312Z,7.82
2022-09-24T21:51:21.988Z,8.05
2022-09-24T21:53:23.547Z,8.18
2022-09-24T21:55:25.688Z,7.65
2022-09-24T21:57:27.301Z,8.02
2022-09-24T21:59:47.613Z,8.13
2022-09-24T22:01:49.407Z,7.85
2022-09-24T22:03:52.515Z,7.18
2022-09-24T22:05:55.077Z,7.55
2022-09-24T22:07:56.637Z,7.35
2022-09-24T22:09:59.373Z,7.28
2022-09-24T22:12:04.542Z,7.70
2022-09-24T22:14:06.338Z,7.93
2022-09-24T22:16:10.678Z,7.63
2022-09-24T22:18:12.164Z,7.70
2022-09-24T22:20:13.907Z,7.25
2022-09-24T22:22:16.698Z,8.60
2022-09-24T22:24:21.298Z,8.90
2022-09-24T22:26:27.260Z,9.77
2022-09-24T22:28:29.469Z,9.60
2022-09-24T22:30:34.178Z,9.70
2022-09-24T22:32:35.863Z,8.88
2022-09-24T22:34:56.227Z,9.80
2022-09-24T22:36:57.785Z,8.50
2022-09-24T22:39:00.564Z,8.15
2022-09-24T22:41:03.991Z,8.20
2022-09-24T22:43:08.289Z,8.02
2022-09-24T22:45:13.671Z,7.75
2022-09-24T22:47:15.143Z,7.35
2022-09-24T22:49:19.670Z,7.38
2022-09-24T22:51:21.763Z,7.38
2022-09-24T22:53:23.480Z,7.63
2022-09-24T22:55:25.100Z,7.20
2022-09-24T22:57:29.504Z,7.00
2022-09-24T22:59:31.445Z,7.20
2022-09-24T23:01:38.990Z,7.25
2022-09-24T23:03:41.220Z,7.88
2022-09-24T23:05:43.147Z,7.47
2022-09-24T23:07:44.932Z,7.68
2022-09-24T23:09:47.409Z,8.30
2022-09-24T23:11:48.823Z,7.65
2022-09-24T23:13:59.737Z,8.00
2022-09-24T23:16:34.700Z,7.55
2022-09-24T23:18:37.641Z,7.97
2022-09-24T23:20:39.152Z,8.07
2022-09-24T23:22:40.721Z,7.60
2022-09-24T23:24:42.838Z,8.07
2022-09-24T23:26:45.467Z,8.77
2022-09-24T23:29:00.950Z,8.93
2022-09-24T23:31:06.460Z,8.90
2022-09-24T23:33:07.884Z,9.35
2022-09-24T23:35:12.383Z,9.52
2022-09-24T23:37:13.911Z,9.90
2022-09-24T23:39:15.418Z,9.00
2022-09-24T23:41:17.384Z,9.25
2022-09-24T23:43:19.855Z,9.07
2022-09-24T23:45:21.589Z,10.15
2022-09-24T23:47:23.219Z,10.13
2022-09-24T23:49:24.765Z,8.88
2022-09-24T23:51:26.433Z,8.88
2022-09-24T23:53:28.082Z,8.63
2022-09-24T23:55:29.596Z,8.48
2022-09-24T23:57:31.015Z,7.90
2022-09-24T23:59:32.921Z,8.35
